Time;durP1;ratioP1;P1;durP2;ratioP2;P2;SDS_P1;SDS_P2;PMS_P1;PMS_P2;Temp;Humidity;BMP_temperature;BMP_pressure;BME280_temperature;BME280_humidity;BME280_pressure;Samples;Min_cycle;Max_cycle;Signal;HPM_P1;HPM_P2
2022/02/25 00:01:03;;;;;;;1.30;0.80;;;;;;;;;;5046678;28;20040;-52
2022/02/25 00:03:29;;;;;;;1.20;0.77;;;;;;;;;;5047195;28;20552;-52
2022/02/25 00:05:56;;;;;;;1.23;0.80;;;;;;;;;;5048093;28;20056;-52
2022/02/25 00:08:22;;;;;;;1.10;0.80;;;;;;;;;;5047633;28;20058;-53
2022/02/25 00:10:48;;;;;;;0.93;0.73;;;;;;;;;;5048167;28;20021;-54
2022/02/25 00:13:14;;;;;;;1.08;0.60;;;;;;;;;;5052945;28;20322;-52
2022/02/25 00:15:40;;;;;;;0.85;0.70;;;;;;;;;;5067719;28;20462;-52
2022/02/25 00:18:06;;;;;;;1.85;0.93;;;;;;;;;;5067297;28;20021;-54
2022/02/25 00:20:32;;;;;;;1.25;0.70;;;;;;;;;;5065877;28;20419;-54
2022/02/25 00:22:58;;;;;;;1.25;0.70;;;;;;;;;;5067482;28;20036;-54
2022/02/25 00:25:24;;;;;;;0.73;0.60;;;;;;;;;;5067144;28;20531;-55
2022/02/25 00:27:51;;;;;;;1.58;0.90;;;;;;;;;;5061487;28;20035;-53
2022/02/25 00:30:17;;;;;;;1.92;1.05;;;;;;;;;;5053983;28;20032;-54
2022/02/25 00:32:43;;;;;;;1.70;0.80;;;;;;;;;;5046081;28;20029;-54
2022/02/25 00:35:10;;;;;;;0.82;0.75;;;;;;;;;;5062228;28;20085;-53
2022/02/25 00:37:37;;;;;;;1.67;0.80;;;;;;;;;;5066055;28;20025;-55
2022/02/25 00:40:03;;;;;;;1.20;0.73;;;;;;;;;;5065423;28;20024;-53
2022/02/25 00:42:30;;;;;;;1.95;0.90;;;;;;;;;;5066795;28;20028;-53
2022/02/25 00:44:56;;;;;;;1.13;0.75;;;;;;;;;;5064943;28;20048;-53
2022/02/25 00:47:23;;;;;;;2.10;0.80;;;;;;;;;;5060115;28;20032;-54
2022/02/25 00:49:49;;;;;;;2.83;0.90;;;;;;;;;;5059768;28;20039;-51
2022/02/25 00:52:16;;;;;;;1.65;0.98;;;;;;;;;;5065394;28;20032;-53
2022/02/25 00:54:44;;;;;;;1.10;0.80;;;;;;;;;;5067259;28;20028;-52
2022/02/25 00:57:10;;;;;;;1.02;0.60;;;;;;;;;;5065396;28;20206;-52
2022/02/25 00:59:36;;;;;;;1.27;0.65;;;;;;;;;;5066941;28;20027;-53
2022/02/25 01:02:02;;;;;;;2.10;0.77;;;;;;;;;;5066861;28;20493;-53
2022/02/25 01:04:29;;;;;;;0.70;0.52;;;;;;;;;;5065107;28;20032;-49
2022/02/25 01:06:56;;;;;;;0.65;0.50;;;;;;;;;;5066668;28;20407;-53
2022/02/25 01:09:23;;;;;;;0.70;0.60;;;;;;;;;;5065663;28;20028;-54
2022/02/25 01:11:50;;;;;;;1.20;0.63;;;;;;;;;;5064848;28;20533;-53
2022/02/25 01:14:16;;;;;;;1.17;0.50;;;;;;;;;;5065668;28;20115;-54
2022/02/25 01:16:42;;;;;;;1.42;0.80;;;;;;;;;;5066550;28;20032;-52
2022/02/25 01:19:08;;;;;;;1.00;0.50;;;;;;;;;;5065753;28;20016;-53
2022/02/25 01:21:34;;;;;;;1.90;0.85;;;;;;;;;;5066814;28;20025;-53
2022/02/25 01:24:00;;;;;;;1.58;0.70;;;;;;;;;;5066020;28;20029;-53
2022/02/25 01:26:28;;;;;;;0.88;0.60;;;;;;;;;;5065135;28;20085;-53
2022/02/25 01:28:55;;;;;;;1.10;0.80;;;;;;;;;;5066321;28;20029;-53
2022/02/25 01:31:23;;;;;;;1.98;0.88;;;;;;;;;;5050987;28;20045;-54
2022/02/25 01:33:49;;;;;;;2.88;1.00;;;;;;;;;;5045920;28;20024;-53
2022/02/25 01:36:15;;;;;;;2.35;0.98;;;;;;;;;;5044735;28;20032;-52
2022/02/25 01:38:41;;;;;;;1.35;0.70;;;;;;;;;;5046584;28;20096;-52
2022/02/25 01:41:07;;;;;;;1.50;0.68;;;;;;;;;;5046131;28;20060;-53
2022/02/25 01:43:33;;;;;;;2.85;0.70;;;;;;;;;;5046408;28;20021;-55
2022/02/25 01:45:59;;;;;;;2.50;0.73;;;;;;;;;;5058886;28;20040;-54
2022/02/25 01:48:26;;;;;;;1.50;0.88;;;;;;;;;;5065605;28;20074;-54
2022/02/25 01:50:52;;;;;;;1.50;0.80;;;;;;;;;;5065996;28;20028;-55
2022/02/25 01:53:20;;;;;;;1.30;0.70;;;;;;;;;;5065548;28;20024;-54
2022/02/25 01:55:47;;;;;;;2.55;1.00;;;;;;;;;;5064633;28;20028;-54
2022/02/25 01:58:15;;;;;;;3.72;1.00;;;;;;;;;;5045834;28;20154;-55
2022/02/25 02:00:41;;;;;;;1.38;0.52;;;;;;;;;;5045013;28;20029;-55
2022/02/25 02:03:07;;;;;;;3.10;0.80;;;;;;;;;;5044455;28;20032;-54
2022/02/25 02:05:35;;;;;;;0.90;0.60;;;;;;;;;;5045710;28;20021;-54
2022/02/25 02:08:02;;;;;;;1.13;0.70;;;;;;;;;;5046290;28;20025;-53
2022/02/25 02:10:28;;;;;;;1.75;0.70;;;;;;;;;;5054859;28;20477;-53
2022/02/25 02:12:54;;;;;;;0.82;0.50;;;;;;;;;;5066217;28;20032;-54
2022/02/25 02:15:21;;;;;;;1.45;0.70;;;;;;;;;;5065844;28;20110;-53
2022/02/25 02:17:48;;;;;;;0.77;0.50;;;;;;;;;;5066105;28;20354;-53
2022/02/25 02:20:15;;;;;;;0.77;0.40;;;;;;;;;;5066136;28;20502;-53
2022/02/25 02:22:41;;;;;;;1.15;0.60;;;;;;;;;;5070162;28;20048;-52
2022/02/25 02:25:08;;;;;;;1.02;0.60;;;;;;;;;;5061076;28;20121;-53
2022/02/25 02:30:20;;;;;;;2.28;0.75;;;;;;;;;;5049819;28;20045;-54
2022/02/25 02:32:47;;;;;;;1.73;0.90;;;;;;;;;;5050208;28;20055;-53
2022/02/25 02:35:14;;;;;;;0.68;0.60;;;;;;;;;;5050034;28;20025;-53
2022/02/25 02:37:40;;;;;;;1.25;0.82;;;;;;;;;;5050419;28;20436;-53
2022/02/25 02:40:07;;;;;;;2.45;0.82;;;;;;;;;;5056258;28;20271;-54
2022/02/25 02:42:33;;;;;;;3.75;1.00;;;;;;;;;;5070231;28;20064;-54
2022/02/25 02:45:00;;;;;;;0.70;0.52;;;;;;;;;;5069547;28;20028;-53
2022/02/25 02:47:26;;;;;;;1.02;0.60;;;;;;;;;;5069497;28;20063;-54
2022/02/25 02:49:52;;;;;;;1.38;0.68;;;;;;;;;;5069598;28;20519;-52
2022/02/25 02:52:19;;;;;;;2.53;0.65;;;;;;;;;;5069682;28;20055;-54
2022/02/25 02:54:45;;;;;;;1.08;0.50;;;;;;;;;;5068084;28;20025;-53
2022/02/25 02:57:11;;;;;;;0.73;0.50;;;;;;;;;;5068190;28;20028;-52
2022/02/25 02:59:38;;;;;;;1.13;0.57;;;;;;;;;;5069636;28;20021;-54
2022/02/25 03:02:04;;;;;;;1.17;0.57;;;;;;;;;;5069263;28;20028;-52
2022/02/25 03:04:31;;;;;;;0.73;0.40;;;;;;;;;;5069618;28;20032;-53
2022/02/25 03:06:57;;;;;;;0.32;0.30;;;;;;;;;;5069439;28;20029;-52
2022/02/25 03:09:23;;;;;;;1.05;0.38;;;;;;;;;;5067778;28;20029;-54
2022/02/25 03:11:52;;;;;;;0.60;0.40;;;;;;;;;;5069477;28;20031;-54
2022/02/25 03:14:19;;;;;;;1.20;0.40;;;;;;;;;;5068841;28;20136;-53
2022/02/25 03:16:45;;;;;;;1.27;0.63;;;;;;;;;;5068945;28;20031;-54
2022/02/25 03:19:12;;;;;;;1.10;0.60;;;;;;;;;;5069170;28;20029;-54
2022/02/25 03:21:39;;;;;;;1.13;0.40;;;;;;;;;;5069687;28;20017;-53
2022/02/25 03:24:05;;;;;;;0.90;0.50;;;;;;;;;;5068101;28;20614;-53
2022/02/25 03:26:31;;;;;;;0.82;0.50;;;;;;;;;;5069158;28;20111;-53
2022/02/25 03:28:58;;;;;;;1.08;0.47;;;;;;;;;;5069075;28;20028;-52
2022/02/25 03:31:24;;;;;;;1.23;0.55;;;;;;;;;;5068143;28;20029;-52
2022/02/25 03:33:51;;;;;;;1.10;0.52;;;;;;;;;;5068739;28;20040;-53
2022/02/25 03:36:17;;;;;;;0.77;0.52;;;;;;;;;;5068718;28;20499;-53
2022/02/25 03:38:43;;;;;;;1.00;0.50;;;;;;;;;;5068024;28;20060;-53
2022/02/25 03:41:10;;;;;;;1.02;0.70;;;;;;;;;;5068833;28;20102;-53
2022/02/25 03:43:36;;;;;;;2.10;0.70;;;;;;;;;;5068729;28;20024;-54
2022/02/25 03:46:02;;;;;;;1.58;0.70;;;;;;;;;;5068513;28;20103;-53
2022/02/25 03:48:28;;;;;;;1.02;0.50;;;;;;;;;;5068737;28;20135;-52
2022/02/25 03:50:54;;;;;;;1.95;0.70;;;;;;;;;;5068911;28;20100;-51
2022/02/25 03:53:21;;;;;;;1.17;0.73;;;;;;;;;;5066511;28;20519;-53
2022/02/25 03:55:47;;;;;;;1.33;0.50;;;;;;;;;;5068887;28;20263;-53
2022/02/25 03:58:14;;;;;;;0.85;0.60;;;;;;;;;;5068665;28;20024;-52
2022/02/25 04:00:41;;;;;;;1.33;0.60;;;;;;;;;;5069124;28;20032;-53
2022/02/25 04:03:08;;;;;;;1.42;0.77;;;;;;;;;;5068873;28;20035;-53
2022/02/25 04:05:34;;;;;;;1.17;0.68;;;;;;;;;;5068253;28;20038;-52
2022/02/25 04:08:00;;;;;;;1.65;0.80;;;;;;;;;;5052648;28;20075;-52
2022/02/25 04:10:26;;;;;;;4.60;1.92;;;;;;;;;;5048187;28;20041;-53
2022/02/25 04:12:52;;;;;;;3.53;1.77;;;;;;;;;;5048676;28;20102;-53
2022/02/25 04:15:19;;;;;;;3.90;1.55;;;;;;;;;;5047515;28;20259;-53
2022/02/25 04:17:45;;;;;;;1.73;1.10;;;;;;;;;;5048272;28;20052;-52
2022/02/25 04:20:11;;;;;;;2.38;1.10;;;;;;;;;;5052919;28;20067;-52
2022/02/25 04:22:37;;;;;;;2.25;1.05;;;;;;;;;;5068101;28;20430;-53
2022/02/25 04:25:04;;;;;;;2.22;0.98;;;;;;;;;;5068025;28;20082;-53
2022/02/25 04:27:30;;;;;;;2.83;1.10;;;;;;;;;;5067589;28;20112;-53
2022/02/25 04:29:56;;;;;;;2.10;0.80;;;;;;;;;;5067866;28;20135;-53
2022/02/25 04:32:22;;;;;;;2.80;0.80;;;;;;;;;;5067740;28;20108;-52
2022/02/25 04:34:48;;;;;;;2.10;0.80;;;;;;;;;;5062817;28;20520;-53
2022/02/25 04:37:15;;;;;;;1.05;0.50;;;;;;;;;;5047437;28;20451;-52
2022/02/25 04:39:41;;;;;;;0.70;0.50;;;;;;;;;;5048020;28;20029;-51
2022/02/25 04:42:07;;;;;;;2.45;0.70;;;;;;;;;;5047570;28;20484;-52
2022/02/25 04:44:34;;;;;;;0.82;0.50;;;;;;;;;;5046612;28;20032;-53
2022/02/25 04:47:00;;;;;;;1.20;0.57;;;;;;;;;;5047987;28;20079;-52
2022/02/25 04:49:26;;;;;;;1.13;0.50;;;;;;;;;;5049878;28;20135;-53
2022/02/25 04:51:53;;;;;;;0.50;0.35;;;;;;;;;;5067269;28;20032;-53
2022/02/25 04:54:19;;;;;;;0.85;0.60;;;;;;;;;;5067028;28;20078;-53
2022/02/25 04:56:45;;;;;;;1.35;0.70;;;;;;;;;;5067440;28;20445;-52
2022/02/25 04:59:12;;;;;;;0.90;0.60;;;;;;;;;;5067323;28;20055;-53
2022/02/25 05:01:39;;;;;;;0.85;0.60;;;;;;;;;;5067446;28;20020;-52
2022/02/25 05:04:06;;;;;;;2.08;0.60;;;;;;;;;;5062014;28;20563;-52
2022/02/25 05:06:33;;;;;;;1.25;0.73;;;;;;;;;;5046911;28;20025;-52
2022/02/25 05:09:00;;;;;;;1.55;0.75;;;;;;;;;;5047210;28;20029;-52
2022/02/25 05:11:26;;;;;;;2.03;0.50;;;;;;;;;;5046927;28;20029;-52
2022/02/25 05:13:54;;;;;;;2.40;0.70;;;;;;;;;;5046700;28;20037;-52
2022/02/25 05:21:54;;;;;;;1.80;1.08;;;;;;;;;;5047074;28;20028;-53
2022/02/25 05:24:21;;;;;;;1.38;0.93;;;;;;;;;;5046753;28;20519;-52
2022/02/25 05:26:48;;;;;;;3.42;1.00;;;;;;;;;;5046988;28;20029;-52
2022/02/25 05:29:15;;;;;;;2.65;0.82;;;;;;;;;;5046878;28;20487;-53
2022/02/25 05:31:41;;;;;;;2.60;0.85;;;;;;;;;;5046664;28;20028;-53
2022/02/25 05:34:07;;;;;;;1.50;0.60;;;;;;;;;;5046847;28;20047;-52
2022/02/25 05:36:33;;;;;;;3.10;0.70;;;;;;;;;;5046891;28;20029;-53
2022/02/25 05:39:00;;;;;;;2.70;0.73;;;;;;;;;;5046605;28;20028;-52
2022/02/25 05:41:27;;;;;;;1.67;0.60;;;;;;;;;;5046567;28;20104;-53
2022/02/25 05:43:53;;;;;;;1.25;0.88;;;;;;;;;;5046160;28;20028;-52
2022/02/25 05:46:20;;;;;;;1.42;0.95;;;;;;;;;;5046482;28;20071;-53
2022/02/25 05:48:46;;;;;;;1.77;0.95;;;;;;;;;;5045956;28;20024;-53
2022/02/25 05:51:12;;;;;;;1.75;0.80;;;;;;;;;;5066738;28;20634;-50
2022/02/25 05:53:39;;;;;;;1.48;0.90;;;;;;;;;;5066528;28;20085;-52
2022/02/25 05:56:06;;;;;;;0.88;0.73;;;;;;;;;;5066204;28;20021;-53
2022/02/25 05:58:32;;;;;;;0.93;0.60;;;;;;;;;;5066089;28;20111;-53
2022/02/25 06:00:58;;;;;;;1.73;0.80;;;;;;;;;;5066178;28;20495;-52
2022/02/25 06:03:25;;;;;;;1.77;0.80;;;;;;;;;;5066104;28;20621;-53
2022/02/25 06:05:52;;;;;;;0.95;0.50;;;;;;;;;;5064799;28;20029;-53
2022/02/25 06:08:18;;;;;;;1.23;0.73;;;;;;;;;;5064993;28;20426;-53
2022/02/25 06:10:44;;;;;;;2.67;0.82;;;;;;;;;;5066560;28;20606;-53
2022/02/25 06:13:10;;;;;;;1.75;0.80;;;;;;;;;;5066373;28;20032;-53
2022/02/25 06:15:38;;;;;;;2.42;0.95;;;;;;;;;;5066126;28;20111;-51
2022/02/25 06:18:04;;;;;;;1.75;0.80;;;;;;;;;;5066139;28;20024;-53
2022/02/25 06:20:31;;;;;;;1.90;0.90;;;;;;;;;;5065962;28;20063;-51
2022/02/25 06:22:57;;;;;;;3.28;0.68;;;;;;;;;;5052703;28;20052;-51
2022/02/25 06:25:23;;;;;;;1.98;0.88;;;;;;;;;;5045611;28;20021;-52
2022/02/25 06:27:49;;;;;;;2.65;0.90;;;;;;;;;;5046188;28;20028;-52
2022/02/25 06:30:15;;;;;;;0.50;0.50;;;;;;;;;;5045679;28;20032;-53
2022/02/25 06:32:43;;;;;;;2.15;0.80;;;;;;;;;;5046287;28;20631;-53
2022/02/25 06:35:09;;;;;;;2.83;0.85;;;;;;;;;;5045964;28;20032;-52
2022/02/25 06:37:37;;;;;;;1.67;1.00;;;;;;;;;;5057404;28;20150;-50
2022/02/25 06:40:03;;;;;;;1.80;0.73;;;;;;;;;;5066051;28;20032;-52
2022/02/25 06:42:29;;;;;;;2.63;1.02;;;;;;;;;;5065772;28;20081;-52
2022/02/25 06:44:55;;;;;;;1.98;0.80;;;;;;;;;;5064907;28;20099;-53
2022/02/25 06:47:21;;;;;;;2.58;0.98;;;;;;;;;;5053550;28;20037;-53
2022/02/25 06:49:47;;;;;;;2.97;1.30;;;;;;;;;;5066161;28;20446;-57
2022/02/25 06:52:13;;;;;;;2.45;1.02;;;;;;;;;;5063048;28;20036;-51
2022/02/25 06:54:39;;;;;;;1.90;0.70;;;;;;;;;;5046077;28;20033;-55
2022/02/25 06:57:05;;;;;;;2.67;1.20;;;;;;;;;;5047797;28;20089;-55
2022/02/25 06:59:32;;;;;;;1.70;0.88;;;;;;;;;;5056713;28;20029;-53
2022/02/25 07:01:59;;;;;;;2.30;1.02;;;;;;;;;;5067361;28;20036;-54
2022/02/25 07:04:25;;;;;;;1.88;0.70;;;;;;;;;;5067053;28;20433;-53
2022/02/25 07:06:51;;;;;;;1.90;0.70;;;;;;;;;;5068914;28;20410;-54
2022/02/25 07:09:18;;;;;;;2.88;0.90;;;;;;;;;;5069919;28;20029;-51
2022/02/25 07:11:43;;;;;;;4.82;1.40;;;;;;;;;;5070168;28;20746;-52
2022/02/25 07:14:10;;;;;;;2.05;1.00;;;;;;;;;;5070242;28;20037;-51
2022/02/25 07:16:36;;;;;;;2.83;1.15;;;;;;;;;;5070575;28;20434;-52
2022/02/25 07:19:02;;;;;;;4.35;1.27;;;;;;;;;;5070769;28;20147;-52
2022/02/25 07:21:28;;;;;;;2.97;1.20;;;;;;;;;;5070316;28;20054;-51
2022/02/25 07:23:54;;;;;;;2.90;1.27;;;;;;;;;;5069182;28;20056;-53
2022/02/25 07:26:20;;;;;;;3.72;1.30;;;;;;;;;;5063413;28;20040;-52
2022/02/25 07:28:46;;;;;;;5.40;1.67;;;;;;;;;;5054609;28;20135;-52
2022/02/25 07:31:14;;;;;;;5.22;1.88;;;;;;;;;;5054541;28;20094;-53
2022/02/25 07:33:40;;;;;;;6.40;2.50;;;;;;;;;;5054306;28;20036;-53
2022/02/25 07:36:06;;;;;;;5.88;2.55;;;;;;;;;;5068331;28;20051;-52
2022/02/25 07:38:32;;;;;;;7.28;2.50;;;;;;;;;;5070216;28;20891;-51
2022/02/25 07:40:58;;;;;;;5.82;2.60;;;;;;;;;;5060350;28;20648;-51
2022/02/25 07:43:26;;;;;;;5.25;2.28;;;;;;;;;;5064999;28;20116;-51
2022/02/25 07:45:52;;;;;;;7.10;2.17;;;;;;;;;;5068420;28;20492;-52
2022/02/25 07:48:19;;;;;;;5.80;2.17;;;;;;;;;;5050466;28;20112;-51
2022/02/25 07:50:46;;;;;;;5.97;2.03;;;;;;;;;;5058283;28;20017;-52
2022/02/25 07:53:13;;;;;;;4.97;1.67;;;;;;;;;;5058611;28;20515;-52
2022/02/25 07:55:39;;;;;;;4.40;1.80;;;;;;;;;;5052935;28;20488;-51
2022/02/25 07:58:05;;;;;;;5.20;2.33;;;;;;;;;;5054340;28;20127;-51
2022/02/25 08:00:32;;;;;;;6.82;2.08;;;;;;;;;;5067668;28;20056;-53
2022/02/25 08:03:00;;;;;;;4.03;1.83;;;;;;;;;;5067746;28;20108;-53
2022/02/25 08:05:26;;;;;;;4.10;1.33;;;;;;;;;;5068100;28;20020;-53
2022/02/25 08:07:53;;;;;;;4.95;1.63;;;;;;;;;;5066621;28;20416;-49
2022/02/25 08:10:19;;;;;;;4.18;1.80;;;;;;;;;;5054566;28;20020;-53
2022/02/25 08:12:45;;;;;;;3.10;1.77;;;;;;;;;;5069190;28;20479;-53
2022/02/25 08:15:12;;;;;;;4.47;1.80;;;;;;;;;;5065229;28;20032;-53
2022/02/25 08:17:39;;;;;;;3.63;1.65;;;;;;;;;;5058163;28;20025;-52
2022/02/25 08:20:05;;;;;;;3.75;1.60;;;;;;;;;;5048107;28;20029;-52
2022/02/25 08:22:32;;;;;;;5.53;1.85;;;;;;;;;;5067483;28;20508;-50
2022/02/25 08:24:58;;;;;;;4.88;1.95;;;;;;;;;;5060193;28;20143;-52
2022/02/25 08:27:25;;;;;;;5.85;2.35;;;;;;;;;;5060278;28;20028;-52
2022/02/25 08:29:51;;;;;;;6.03;2.50;;;;;;;;;;5068474;28;20086;-51
2022/02/25 08:32:17;;;;;;;5.43;1.55;;;;;;;;;;5069028;28;20025;-52
2022/02/25 08:34:43;;;;;;;4.30;1.70;;;;;;;;;;5068539;28;20036;-53
2022/02/25 08:37:09;;;;;;;5.72;2.20;;;;;;;;;;5068950;28;20029;-52
2022/02/25 08:39:37;;;;;;;6.93;2.20;;;;;;;;;;5069003;28;20230;-52
2022/02/25 08:42:03;;;;;;;5.60;2.42;;;;;;;;;;5067963;28;20021;-52
2022/02/25 08:44:30;;;;;;;7.57;2.38;;;;;;;;;;5066236;28;20059;-54
2022/02/25 08:46:57;;;;;;;4.88;2.17;;;;;;;;;;5049046;28;20032;-52
2022/02/25 08:49:23;;;;;;;6.78;1.90;;;;;;;;;;5065974;28;20544;-50
2022/02/25 08:51:49;;;;;;;7.18;1.88;;;;;;;;;;5068584;28;20150;-53
2022/02/25 08:54:16;;;;;;;4.22;1.50;;;;;;;;;;5067350;28;20028;-54
2022/02/25 08:56:44;;;;;;;8.23;1.63;;;;;;;;;;5068681;28;20013;-53
2022/02/25 08:59:12;;;;;;;4.13;1.50;;;;;;;;;;5068586;28;20576;-53
2022/02/25 09:01:38;;;;;;;6.03;2.03;;;;;;;;;;5068637;28;20024;-52
2022/02/25 09:04:04;;;;;;;4.47;1.40;;;;;;;;;;5055930;28;20556;-50
2022/02/25 09:06:32;;;;;;;3.55;1.40;;;;;;;;;;5049170;28;20029;-53
2022/02/25 09:08:59;;;;;;;5.07;1.33;;;;;;;;;;5048502;28;20033;-52
2022/02/25 09:11:26;;;;;;;3.67;1.42;;;;;;;;;;5049050;28;20128;-52
2022/02/25 09:13:53;;;;;;;5.30;1.27;;;;;;;;;;5048260;28;20424;-52
2022/02/25 09:16:20;;;;;;;6.57;1.33;;;;;;;;;;5049006;28;20112;-51
2022/02/25 09:18:48;;;;;;;3.42;1.30;;;;;;;;;;5048067;28;20049;-52
2022/02/25 09:21:17;;;;;;;3.80;1.02;;;;;;;;;;5046425;28;20462;-52
2022/02/25 09:23:44;;;;;;;3.35;1.10;;;;;;;;;;5048526;28;20028;-53
2022/02/25 09:26:10;;;;;;;4.97;1.27;;;;;;;;;;5046250;28;20583;-53
2022/02/25 09:28:37;;;;;;;3.28;0.90;;;;;;;;;;5053840;28;20454;-51
2022/02/25 09:31:04;;;;;;;5.50;1.50;;;;;;;;;;5067707;28;20409;-52
2022/02/25 09:33:30;;;;;;;4.97;1.30;;;;;;;;;;5056198;28;20029;-53
2022/02/25 09:35:56;;;;;;;3.45;0.98;;;;;;;;;;5060064;28;20025;-53
2022/02/25 09:38:22;;;;;;;4.53;0.98;;;;;;;;;;5048959;28;20424;-52
2022/02/25 09:40:49;;;;;;;3.60;1.00;;;;;;;;;;5048891;28;20527;-53
2022/02/25 09:43:15;;;;;;;1.83;0.65;;;;;;;;;;5055718;28;20556;-54
2022/02/25 09:45:42;;;;;;;3.80;1.17;;;;;;;;;;5068148;28;20533;-55
2022/02/25 09:48:11;;;;;;;3.50;1.45;;;;;;;;;;5062379;28;20031;-55
2022/02/25 09:50:38;;;;;;;2.65;0.65;;;;;;;;;;5056983;28;20100;-55
2022/02/25 09:53:04;;;;;;;4.10;0.98;;;;;;;;;;5059916;28;20313;-52
2022/02/25 09:55:33;;;;;;;4.78;1.08;;;;;;;;;;5047415;28;20080;-53
2022/02/25 09:58:03;;;;;;;7.18;2.28;;;;;;;;;;5048475;28;20024;-56
2022/02/25 10:00:30;;;;;;;8.20;2.10;;;;;;;;;;5048406;28;20492;-52
2022/02/25 10:02:59;;;;;;;6.75;2.35;;;;;;;;;;5051990;28;20048;-54
2022/02/25 10:05:25;;;;;;;5.50;1.85;;;;;;;;;;5058053;28;20033;-52
2022/02/25 10:07:52;;;;;;;7.13;2.30;;;;;;;;;;5053738;28;20479;-53
2022/02/25 10:10:20;;;;;;;5.38;1.70;;;;;;;;;;5063758;28;20033;-53
2022/02/25 10:12:47;;;;;;;4.38;1.70;;;;;;;;;;5048368;28;20127;-52
2022/02/25 10:15:14;;;;;;;3.72;1.55;;;;;;;;;;5056291;28;20028;-54
2022/02/25 10:17:41;;;;;;;4.20;1.38;;;;;;;;;;5059248;28;20040;-52
2022/02/25 10:20:07;;;;;;;3.08;1.35;;;;;;;;;;5069546;28;20033;-51
2022/02/25 10:22:35;;;;;;;5.15;1.83;;;;;;;;;;5068804;28;20028;-52
2022/02/25 10:25:01;;;;;;;5.82;1.63;;;;;;;;;;5071501;28;20241;-54
2022/02/25 10:27:30;;;;;;;6.50;1.60;;;;;;;;;;5055984;28;20083;-52
2022/02/25 10:29:56;;;;;;;5.40;1.73;;;;;;;;;;5053694;28;20033;-52
2022/02/25 10:32:29;;;;;;;4.60;1.60;;;;;;;;;;5047980;28;20440;-53
2022/02/25 10:34:55;;;;;;;7.68;2.00;;;;;;;;;;5047561;28;20021;-51
2022/02/25 10:37:22;;;;;;;3.97;1.60;;;;;;;;;;5055366;28;20024;-53
2022/02/25 10:39:48;;;;;;;6.55;1.80;;;;;;;;;;5052293;28;20496;-53
2022/02/25 10:42:16;;;;;;;6.97;1.90;;;;;;;;;;5056062;28;20036;-51
2022/02/25 10:44:57;;;;;;;6.35;2.25;;;;;;;;;;5065284;28;20063;-53
2022/02/25 10:47:30;;;;;;;5.72;1.98;;;;;;;;;;5063881;28;20040;-53
2022/02/25 10:50:02;;;;;;;10.02;2.67;;;;;;;;;;5051165;28;20025;-50
2022/02/25 10:52:36;;;;;;;5.68;1.95;;;;;;;;;;5050061;28;20177;-54
2022/02/25 10:55:03;;;;;;;6.30;1.98;;;;;;;;;;5064792;28;20039;-54
2022/02/25 10:57:33;;;;;;;4.57;1.88;;;;;;;;;;5054901;28;20086;-53
2022/02/25 11:00:01;;;;;;;7.10;1.85;;;;;;;;;;5061178;28;20028;-53
2022/02/25 11:02:28;;;;;;;4.95;1.63;;;;;;;;;;5058804;28;20495;-52
2022/02/25 11:05:15;;;;;;;6.07;1.63;;;;;;;;;;5054053;28;20033;-53
2022/02/25 11:07:43;;;;;;;5.35;1.45;;;;;;;;;;5057357;28;20044;-52
2022/02/25 11:10:09;;;;;;;2.20;0.90;;;;;;;;;;5065849;28;20064;-51
2022/02/25 11:12:39;;;;;;;5.18;1.02;;;;;;;;;;5056146;28;20039;-51
2022/02/25 11:15:06;;;;;;;3.03;1.17;;;;;;;;;;5051205;28;20029;-53
2022/02/25 11:17:35;;;;;;;2.47;0.70;;;;;;;;;;5057620;28;20054;-51
2022/02/25 11:20:03;;;;;;;2.97;1.30;;;;;;;;;;5058239;28;21456;-54
2022/02/25 11:22:30;;;;;;;4.68;1.70;;;;;;;;;;5061467;28;20043;-52
2022/02/25 11:24:57;;;;;;;6.30;1.67;;;;;;;;;;5067150;28;20029;-52
2022/02/25 11:27:23;;;;;;;3.08;1.33;;;;;;;;;;5060086;28;20128;-54
2022/02/25 11:29:53;;;;;;;3.10;1.20;;;;;;;;;;5062256;28;20056;-53
2022/02/25 11:32:22;;;;;;;3.60;1.25;;;;;;;;;;5066946;28;20109;-54
2022/02/25 11:34:48;;;;;;;2.67;1.40;;;;;;;;;;5069384;28;20492;-53
2022/02/25 11:37:14;;;;;;;3.75;1.15;;;;;;;;;;5066017;28;20116;-54
2022/02/25 11:39:44;;;;;;;2.58;0.80;;;;;;;;;;5061853;28;20027;-54
2022/02/25 11:42:16;;;;;;;2.80;1.10;;;;;;;;;;5068896;28;20036;-53
2022/02/25 11:44:43;;;;;;;3.67;1.15;;;;;;;;;;5069054;28;20499;-53
2022/02/25 11:47:29;;;;;;;4.05;1.67;;;;;;;;;;5068589;28;20282;-53
2022/02/25 11:49:56;;;;;;;4.35;1.30;;;;;;;;;;5064631;28;20082;-53
2022/02/25 11:52:29;;;;;;;3.28;1.17;;;;;;;;;;5059092;28;20044;-52
2022/02/25 11:54:55;;;;;;;3.45;1.13;;;;;;;;;;5050891;28;20021;-51
2022/02/25 11:57:23;;;;;;;3.78;1.25;;;;;;;;;;5050680;28;20228;-52
2022/02/25 11:59:49;;;;;;;1.30;0.73;;;;;;;;;;5066199;28;20361;-52
2022/02/25 12:02:30;;;;;;;2.13;0.65;;;;;;;;;;5062438;28;20082;-52
2022/02/25 12:05:03;;;;;;;1.85;0.90;;;;;;;;;;5068711;28;20059;-53
2022/02/25 12:07:38;;;;;;;3.03;0.83;;;;;;;;;;5057476;28;20115;-53
2022/02/25 12:10:04;;;;;;;;;;;;;;;;;;5070322;28;20112;-53
2022/02/25 12:12:30;;;;;;;2.65;0.93;;;;;;;;;;5057804;28;20003;-52
2022/02/25 12:15:08;;;;;;;1.08;0.70;;;;;;;;;;5050591;28;20036;-53
2022/02/25 12:17:38;;;;;;;3.08;1.20;;;;;;;;;;5050576;28;20029;-53
2022/02/25 12:20:06;;;;;;;2.13;1.20;;;;;;;;;;5050451;28;20035;-53
2022/02/25 12:22:52;;;;;;;4.85;1.42;;;;;;;;;;5061445;28;20032;-53
2022/02/25 12:25:37;;;;;;;2.83;1.25;;;;;;;;;;5060901;28;20045;-52
2022/02/25 12:28:04;;;;;;;;;;;;;;;;;;5061344;28;20108;-53
2022/02/25 12:30:37;;;;;;;4.03;1.45;;;;;;;;;;5059128;28;19919;-54
2022/02/25 12:33:22;;;;;;;4.13;1.10;;;;;;;;;;5064389;28;20032;-53
2022/02/25 12:35:48;;;;;;;;;;;;;;;;;;5056348;28;20085;-53
2022/02/25 12:38:17;;;;;;;8.60;2.25;;;;;;;;;;5066672;28;19912;-51
2022/02/25 12:40:43;;;;;;;6.50;2.10;;;;;;;;;;5054088;28;20074;-53
2022/02/25 12:43:14;;;;;;;3.78;1.40;;;;;;;;;;5049657;28;20392;-53
2022/02/25 12:45:40;;;;;;;3.20;1.40;;;;;;;;;;5067301;28;20056;-54
2022/02/25 12:48:06;;;;;;;4.22;1.33;;;;;;;;;;5069614;28;20063;-54
2022/02/25 12:50:33;;;;;;;4.68;1.98;;;;;;;;;;5057899;28;20021;-53
2022/02/25 12:53:05;;;;;;;4.78;1.52;;;;;;;;;;5055621;28;20086;-54
2022/02/25 12:55:32;;;;;;;4.65;1.70;;;;;;;;;;5059698;28;20032;-54
2022/02/25 12:57:58;;;;;;;1.75;0.93;;;;;;;;;;5068906;28;20017;-54
2022/02/25 13:00:25;;;;;;;3.00;1.30;;;;;;;;;;5056841;28;20029;-53
2022/02/25 13:02:53;;;;;;;1.77;0.93;;;;;;;;;;5063437;28;20041;-54
2022/02/25 13:05:19;;;;;;;2.70;0.88;;;;;;;;;;5048166;28;20525;-54
2022/02/25 13:07:55;;;;;;;2.85;1.20;;;;;;;;;;5048081;28;20039;-52
2022/02/25 13:10:24;;;;;;;6.82;2.40;;;;;;;;;;5050258;28;20044;-53
2022/02/25 13:12:51;;;;;;;3.80;1.42;;;;;;;;;;5060895;28;20580;-52
2022/02/25 13:15:24;;;;;;;3.17;1.13;;;;;;;;;;5058751;28;20032;-53
2022/02/25 13:17:50;;;;;;;3.63;1.05;;;;;;;;;;5049297;28;20047;-53
2022/02/25 13:20:18;;;;;;;2.65;1.00;;;;;;;;;;5054329;28;20103;-53
2022/02/25 13:22:45;;;;;;;2.55;0.93;;;;;;;;;;5064691;28;20376;-55
2022/02/25 13:25:16;;;;;;;2.75;0.82;;;;;;;;;;5055099;28;20111;-55
2022/02/25 13:27:46;;;;;;;2.10;0.70;;;;;;;;;;5069033;28;20071;-55
2022/02/25 13:30:32;;;;;;;3.42;0.80;;;;;;;;;;5054667;28;20036;-49
2022/02/25 13:33:06;;;;;;;2.60;0.80;;;;;;;;;;5047703;28;20045;-52
2022/02/25 13:35:33;;;;;;;1.88;0.60;;;;;;;;;;5052188;28;20028;-53
2022/02/25 13:38:04;;;;;;;1.65;0.65;;;;;;;;;;5068076;28;20109;-54
2022/02/25 13:40:41;;;;;;;1.35;0.82;;;;;;;;;;5065909;28;20082;-53
2022/02/25 13:43:17;;;;;;;3.30;0.95;;;;;;;;;;5067330;28;20035;-52
2022/02/25 13:45:43;;;;;;;1.60;0.50;;;;;;;;;;5068113;28;20128;-52
2022/02/25 13:53:56;;;;;;;2.80;1.17;;;;;;;;;;5057471;28;20056;-52
2022/02/25 13:56:27;;;;;;;6.55;0.95;;;;;;;;;;5049543;28;20024;-53
2022/02/25 13:58:57;;;;;;;1.83;0.90;;;;;;;;;;5065163;28;20108;-50
2022/02/25 14:01:23;;;;;;;2.88;0.80;;;;;;;;;;5078926;28;20491;-49
2022/02/25 14:03:50;;;;;;;1.35;0.75;;;;;;;;;;5062331;28;20111;-51
2022/02/25 14:06:45;;;;;;;1.60;0.75;;;;;;;;;;5060984;28;20408;-54
2022/02/25 14:09:18;;;;;;;2.38;0.95;;;;;;;;;;5066209;28;20058;-52
2022/02/25 14:11:44;;;;;;;2.15;1.05;;;;;;;;;;5054601;28;20021;-51
2022/02/25 14:14:10;;;;;;;1.40;0.75;;;;;;;;;;5058670;28;20407;-52
2022/02/25 14:16:43;;;;;;;1.98;0.90;;;;;;;;;;5059690;28;20025;-52
2022/02/25 14:19:13;;;;;;;4.53;1.05;;;;;;;;;;5059079;28;20025;-50
2022/02/25 14:21:40;;;;;;;3.45;0.88;;;;;;;;;;5065521;28;20013;-52
2022/02/25 14:24:26;;;;;;;2.10;0.73;;;;;;;;;;5069514;28;20076;-53
2022/02/25 14:27:12;;;;;;;2.55;0.73;;;;;;;;;;5059476;28;20053;-52
2022/02/25 14:29:39;;;;;;;1.05;0.60;;;;;;;;;;5055366;28;20384;-52
2022/02/25 14:32:13;;;;;;;1.27;0.63;;;;;;;;;;5055070;28;20488;-52
2022/02/25 14:34:40;;;;;;;1.05;0.50;;;;;;;;;;5057463;28;20021;-53
2022/02/25 14:37:06;;;;;;;0.98;0.60;;;;;;;;;;5081832;28;20407;-52
2022/02/25 14:39:32;;;;;;;2.08;0.63;;;;;;;;;;5074866;28;20438;-50
2022/02/25 14:41:59;;;;;;;1.70;0.80;;;;;;;;;;5074574;28;20025;-52
2022/02/25 14:44:26;;;;;;;2.35;0.70;;;;;;;;;;5073574;28;20043;-50
2022/02/25 14:46:52;;;;;;;2.05;0.90;;;;;;;;;;5073979;28;20037;-52
2022/02/25 14:49:21;;;;;;;1.13;0.60;;;;;;;;;;5073695;28;20042;-49
2022/02/25 14:51:50;;;;;;;3.53;0.80;;;;;;;;;;5074033;28;20074;-52
2022/02/25 14:54:16;;;;;;;3.00;0.80;;;;;;;;;;5069126;28;20125;-52
2022/02/25 14:56:42;;;;;;;1.45;0.60;;;;;;;;;;5054026;28;20034;-52
2022/02/25 14:59:09;;;;;;;2.72;1.00;;;;;;;;;;5067774;28;20025;-53